Terminal Aerodrome Forecast
Issued by NWS Grand Forks, ND

Home | Current Version | Previous Version | Graphics & Text | Print | Product List | Glossary On
Versions: 1 2 3 4 5 6 7 8 9 10 11 12 13 14 15 16
715
FTUS43 KFGF 221735
TAFFAR
TAF
KFAR 221735Z 2218/2318 17023G32KT P6SM BKN060
     FM230200 16015G22KT P6SM OVC060
     FM230600 17015KT P6SM VCTS OVC030CB
     FM231100 17010KT P6SM VCSH OVC030
     FM231400 24007KT P6SM BKN150=

USA.gov is the U.S. government's official web portal to all federal, state and local government web resources and services.